Time;durP1;ratioP1;P1;durP2;ratioP2;P2;SDS_P1;SDS_P2;PMS_P1;PMS_P2;Temp;Humidity;BMP_temperature;BMP_pressure;BME280_temperature;BME280_humidity;BME280_pressure;Samples;Min_cycle;Max_cycle;Signal;HPM_P1;HPM_P2
2020/12/02 00:02:07;;;;;;;21.27;13.00;;;7.10;95.60;;;;;;5096765;28;20027;-79
2020/12/02 00:04:33;;;;;;;22.50;13.33;;;7.10;95.60;;;;;;5096349;28;20034;-78
2020/12/02 00:07:00;;;;;;;23.10;12.70;;;7.20;95.60;;;;;;5096293;28;20027;-79
2020/12/02 00:09:27;;;;;;;21.70;12.67;;;7.20;95.60;;;;;;5094871;28;20024;-79
2020/12/02 00:11:53;;;;;;;20.73;12.30;;;7.20;95.50;;;;;;5096051;28;20555;-78
2020/12/02 00:14:27;;;;;;;19.00;11.83;;;7.10;95.50;;;;;;5096133;28;20024;-79
2020/12/02 00:16:53;;;;;;;23.87;12.67;;;7.20;95.70;;;;;;5078351;28;20536;-79
2020/12/02 00:19:21;;;;;;;19.93;10.93;;;7.10;95.40;;;;;;5096109;28;20042;-79
2020/12/02 00:22:07;;;;;;;18.93;10.90;;;7.20;95.50;;;;;;5078667;28;20104;-79
2020/12/02 00:24:33;;;;;;;19.30;11.07;;;7.20;95.40;;;;;;5097820;28;20032;-79
2020/12/02 00:27:11;;;;;;;18.70;11.40;;;7.20;95.40;;;;;;5097234;28;20099;-79
2020/12/02 00:29:36;;;;;;;21.27;11.03;;;7.20;95.40;;;;;;5078313;28;20024;-78
2020/12/02 00:32:02;;;;;;;18.57;10.97;;;7.10;95.30;;;;;;5078978;28;20081;-79
2020/12/02 00:34:28;;;;;;;19.03;11.23;;;7.20;95.40;;;;;;5097208;28;20056;-79
2020/12/02 00:36:54;;;;;;;21.70;12.00;;;7.10;95.30;;;;;;5078291;28;20035;-79
2020/12/02 00:39:19;;;;;;;20.43;12.70;;;7.10;95.40;;;;;;5095819;28;20059;-78
2020/12/02 00:41:47;;;;;;;20.77;12.40;;;7.20;95.30;;;;;;5094087;28;20389;-79
2020/12/02 00:44:13;;;;;;;22.17;13.07;;;7.10;95.20;;;;;;5094371;28;20035;-78
2020/12/02 00:46:39;;;;;;;20.67;12.67;;;7.20;95.30;;;;;;5094333;28;20028;-78
2020/12/02 00:49:05;;;;;;;22.37;12.97;;;7.20;95.30;;;;;;5075338;28;20020;-79
2020/12/02 00:51:33;;;;;;;20.97;13.43;;;7.20;95.30;;;;;;5094351;28;20024;-79
2020/12/02 00:53:58;;;;;;;23.03;12.57;;;7.20;95.40;;;;;;5094323;28;20039;-79
2020/12/02 00:56:24;;;;;;;20.20;13.30;;;7.10;95.20;;;;;;5094081;28;20474;-78
2020/12/02 00:59:02;;;;;;;18.63;12.33;;;7.10;95.10;;;;;;5093818;28;20035;-78
2020/12/02 01:01:33;;;;;;;19.73;12.27;;;7.10;94.90;;;;;;5094268;28;20392;-78
2020/12/02 01:04:01;;;;;;;20.27;13.27;;;7.20;94.90;;;;;;5094662;28;20366;-78
2020/12/02 01:06:27;;;;;;;18.13;11.77;;;7.10;94.90;;;;;;5095015;28;20042;-78
2020/12/02 01:08:53;;;;;;;16.93;11.63;;;7.10;94.90;;;;;;5076020;28;20020;-78
2020/12/02 01:11:26;;;;;;;18.07;11.73;;;7.10;94.90;;;;;;5094378;28;20063;-79
2020/12/02 01:13:58;;;;;;;16.07;10.63;;;7.10;94.90;;;;;;5094440;28;20093;-79
2020/12/02 01:16:31;;;;;;;16.67;9.67;;;7.10;95.00;;;;;;5095055;28;20028;-78
2020/12/02 01:18:57;;;;;;;12.87;8.77;;;7.10;94.80;;;;;;5093442;28;20399;-78
2020/12/02 01:21:53;;;;;;;12.97;8.33;;;7.10;94.90;;;;;;5097594;28;20168;-79
2020/12/02 01:24:29;;;;;;;13.13;8.73;;;7.10;95.00;;;;;;5097564;28;20031;-79
2020/12/02 01:27:04;;;;;;;12.30;8.67;;;7.10;94.90;;;;;;5097904;28;20028;-78
2020/12/02 01:29:30;;;;;;;18.17;8.00;;;7.10;94.90;;;;;;5097181;28;20464;-79
2020/12/02 01:31:59;;;;;;;12.13;7.80;;;7.10;94.90;;;;;;5078861;28;20031;-78
2020/12/02 01:34:26;;;;;;;13.17;7.63;;;7.10;94.80;;;;;;5079331;28;20115;-78
2020/12/02 01:37:04;;;;;;;11.03;7.23;;;7.10;94.80;;;;;;5079281;28;20258;-79
2020/12/02 01:39:33;;;;;;;10.68;6.70;;;7.10;94.90;;;;;;5096969;28;20028;-79
2020/12/02 01:41:58;;;;;;;10.47;6.60;;;7.10;95.10;;;;;;5097357;28;20024;-78
2020/12/02 01:44:25;;;;;;;11.80;7.43;;;7.10;94.80;;;;;;5097185;28;20438;-79
2020/12/02 01:47:06;;;;;;;11.03;6.80;;;7.10;94.80;;;;;;5097639;28;20095;-78
2020/12/02 01:49:49;;;;;;;9.60;6.37;;;7.10;94.80;;;;;;5096788;28;20051;-78
2020/12/02 01:52:58;;;;;;;11.23;6.47;;;7.10;94.70;;;;;;5096806;28;20032;-78
2020/12/02 01:55:28;;;;;;;12.13;6.80;;;7.10;94.60;;;;;;5014793;28;20077;-78
2020/12/02 01:57:59;;;;;;;12.03;7.13;;;7.10;94.70;;;;;;5014680;28;20033;-79
2020/12/02 02:00:30;;;;;;;9.97;6.23;;;7.10;94.70;;;;;;5060383;28;20043;-79
2020/12/02 02:03:08;;;;;;;11.80;6.77;;;7.10;94.80;;;;;;5097126;28;20023;-78
2020/12/02 02:05:52;;;;;;;13.07;6.93;;;7.10;94.80;;;;;;5097201;28;20024;-79
2020/12/02 02:08:21;;;;;;;11.67;6.80;;;7.10;94.40;;;;;;5097480;28;20056;-79
2020/12/02 02:10:49;;;;;;;12.32;7.15;;;7.10;94.60;;;;;;5084124;22;20522;-85
2020/12/02 02:13:33;;;;;;;13.03;7.30;;;7.10;94.60;;;;;;5054340;28;20138;-85
2020/12/02 02:16:18;;;;;;;14.83;7.20;;;7.10;94.60;;;;;;5054148;28;20032;-86
2020/12/02 02:18:44;;;;;;;12.00;6.87;;;7.10;94.50;;;;;;5054182;28;20040;-87
2020/12/02 02:21:14;;;;;;;13.23;7.43;;;7.10;94.60;;;;;;5053971;28;20032;-85
2020/12/02 02:23:40;;;;;;;13.20;7.00;;;7.00;94.50;;;;;;5054459;28;20037;-86
2020/12/02 02:26:15;;;;;;;14.20;7.80;;;7.10;94.70;;;;;;5055950;28;20350;-86
2020/12/02 02:29:00;;;;;;;15.50;8.47;;;7.00;94.60;;;;;;5055490;28;20025;-85
2020/12/02 02:31:29;;;;;;;13.43;8.03;;;7.10;94.60;;;;;;5053598;28;20067;-85
2020/12/02 02:33:55;;;;;;;15.10;8.90;;;7.10;94.60;;;;;;5055555;28;20044;-87
2020/12/02 02:36:24;;;;;;;14.90;8.53;;;7.10;94.30;;;;;;5054109;28;20028;-86
2020/12/02 02:38:50;;;;;;;16.97;9.43;;;7.10;94.40;;;;;;5055282;28;20028;-85
2020/12/02 02:41:17;;;;;;;16.73;9.53;;;7.10;94.20;;;;;;5054087;28;20025;-85
2020/12/02 02:43:43;;;;;;;14.90;9.37;;;7.10;94.00;;;;;;5053813;28;20366;-86
2020/12/02 02:46:08;;;;;;;16.10;9.53;;;7.10;94.10;;;;;;5053828;28;20058;-87
2020/12/02 02:48:35;;;;;;;15.67;9.13;;;7.10;94.20;;;;;;5055358;28;20079;-85
2020/12/02 02:51:01;;;;;;;19.23;11.20;;;7.00;94.00;;;;;;5055114;28;20021;-85
2020/12/02 02:53:29;;;;;;;18.53;10.37;;;7.10;94.10;;;;;;5055279;28;20033;-85
2020/12/02 02:55:55;;;;;;;18.03;10.00;;;7.00;94.20;;;;;;5055272;28;20036;-87
2020/12/02 02:58:25;;;;;;;17.27;10.40;;;7.00;94.30;;;;;;5055105;28;20021;-86
2020/12/02 03:00:54;;;;;;;20.30;11.33;;;7.00;94.30;;;;;;5053285;28;20389;-85
2020/12/02 03:03:20;;;;;;;16.60;10.30;;;7.00;94.30;;;;;;5055046;28;20493;-85
2020/12/02 03:05:46;;;;;;;19.73;12.07;;;7.00;94.20;;;;;;5055532;28;20493;-86
2020/12/02 03:08:13;;;;;;;20.60;11.33;;;7.00;94.30;;;;;;5053635;28;20032;-86
2020/12/02 03:10:41;;;;;;;21.63;12.03;;;7.00;94.30;;;;;;5053377;28;20051;-85
2020/12/02 03:13:36;;;;;;;22.17;12.27;;;7.00;94.30;;;;;;5054881;28;20036;-86
2020/12/02 03:16:08;;;;;;;21.17;11.83;;;7.00;94.30;;;;;;5045662;28;20123;-86
2020/12/02 03:18:34;;;;;;;22.33;12.70;;;7.00;94.30;;;;;;5055311;28;20497;-85
2020/12/02 03:21:04;;;;;;;20.20;12.07;;;7.00;94.30;;;;;;5052956;28;20021;-86
2020/12/02 03:23:30;;;;;;;22.07;11.87;;;7.00;94.30;;;;;;5054223;28;20028;-87
2020/12/02 03:25:56;;;;;;;23.73;12.70;;;7.00;94.10;;;;;;5053999;28;20108;-87
2020/12/02 03:28:28;;;;;;;24.93;12.60;;;7.00;94.20;;;;;;5055043;28;20485;-85
2020/12/02 03:30:58;;;;;;;26.00;12.63;;;7.00;94.20;;;;;;5052915;28;20025;-85
2020/12/02 03:33:25;;;;;;;23.40;13.03;;;7.00;94.30;;;;;;5053901;28;20128;-86
2020/12/02 03:35:50;;;;;;;26.80;13.57;;;7.00;94.10;;;;;;5054700;28;20025;-85
2020/12/02 03:38:16;;;;;;;28.97;14.80;;;7.00;94.40;;;;;;5053140;28;20465;-86
2020/12/02 03:40:42;;;;;;;24.73;14.00;;;7.00;94.10;;;;;;5052872;28;20037;-86
2020/12/02 03:43:09;;;;;;;27.73;14.73;;;7.00;94.10;;;;;;5052283;28;20028;-85
2020/12/02 03:45:39;;;;;;;26.33;14.63;;;7.00;94.10;;;;;;5052548;28;20045;-86
2020/12/02 03:48:05;;;;;;;24.33;13.60;;;7.00;94.10;;;;;;5053790;28;20025;-86
2020/12/02 03:50:31;;;;;;;27.60;14.77;;;7.00;94.10;;;;;;5054572;28;20139;-86
2020/12/02 03:52:56;;;;;;;29.40;14.40;;;7.10;94.30;;;;;;5053237;28;20105;-86
2020/12/02 03:55:22;;;;;;;29.50;14.63;;;6.90;94.00;;;;;;5053339;28;20025;-86
2020/12/02 03:57:47;;;;;;;27.17;14.70;;;7.00;93.90;;;;;;5054835;28;20121;-86
2020/12/02 04:00:13;;;;;;;27.63;14.33;;;7.00;93.90;;;;;;5054071;28;20080;-86
2020/12/02 04:02:39;;;;;;;27.73;15.67;;;7.00;94.00;;;;;;5054349;28;20499;-85
2020/12/02 04:05:06;;;;;;;28.83;15.17;;;6.90;94.10;;;;;;5053239;28;20392;-86
2020/12/02 04:07:32;;;;;;;29.63;15.80;;;6.90;94.10;;;;;;5053410;28;20051;-86
2020/12/02 04:09:57;;;;;;;29.40;15.57;;;7.00;93.90;;;;;;5052837;28;20459;-85
2020/12/02 04:12:23;;;;;;;28.93;15.67;;;6.90;94.00;;;;;;5052930;28;20477;-86
2020/12/02 04:14:48;;;;;;;30.77;16.03;;;6.90;94.10;;;;;;5054705;28;20029;-87
2020/12/02 04:17:14;;;;;;;30.87;16.60;;;6.90;94.10;;;;;;5054657;28;20036;-85
2020/12/02 04:19:40;;;;;;;33.20;16.83;;;7.00;94.10;;;;;;5052966;28;20033;-85
2020/12/02 04:22:05;;;;;;;33.40;16.50;;;6.90;94.10;;;;;;5054361;28;20033;-86
2020/12/02 04:24:31;;;;;;;33.63;16.70;;;7.00;94.10;;;;;;5055140;28;20091;-85
2020/12/02 04:26:56;;;;;;;30.37;16.00;;;7.00;93.90;;;;;;5055553;28;20053;-85
2020/12/02 04:29:22;;;;;;;35.13;17.20;;;7.00;94.00;;;;;;5055845;28;20032;-85
2020/12/02 04:31:48;;;;;;;31.83;16.33;;;6.90;94.00;;;;;;5051571;28;20049;-85
2020/12/02 04:34:13;;;;;;;31.70;16.47;;;6.90;93.80;;;;;;5053086;28;20068;-85
2020/12/02 04:36:39;;;;;;;31.07;16.60;;;7.00;93.90;;;;;;5051547;28;20025;-87
2020/12/02 04:39:05;;;;;;;36.23;17.10;;;7.00;93.80;;;;;;5050987;28;20108;-86
2020/12/02 04:41:32;;;;;;;34.53;17.17;;;7.00;93.90;;;;;;5051243;28;20029;-85
2020/12/02 04:43:58;;;;;;;30.90;16.30;;;7.00;93.90;;;;;;5051486;28;20055;-85
2020/12/02 04:46:31;;;;;;;35.63;17.23;;;7.00;93.90;;;;;;5051340;28;20501;-85
2020/12/02 04:49:18;;;;;;;32.07;16.40;;;6.90;93.80;;;;;;5051007;28;20090;-85
2020/12/02 04:51:44;;;;;;;36.10;18.10;;;6.90;93.90;;;;;;5052560;28;20043;-87
2020/12/02 04:54:10;;;;;;;33.73;16.47;;;6.90;93.90;;;;;;5052133;28;20028;-86
2020/12/02 04:56:41;;;;;;;34.57;17.03;;;6.90;93.70;;;;;;5052561;28;20036;-86
2020/12/02 04:59:06;;;;;;;35.17;16.23;;;6.90;93.80;;;;;;5052355;28;20520;-85
2020/12/02 05:01:35;;;;;;;31.93;16.50;;;6.90;93.70;;;;;;5051037;28;20029;-86
2020/12/02 05:04:07;;;;;;;37.10;17.97;;;6.90;93.60;;;;;;5050893;28;20029;-86
2020/12/02 05:06:41;;;;;;;32.87;17.03;;;6.90;93.50;;;;;;5050848;28;20502;-85
2020/12/02 05:09:10;;;;;;;33.70;15.97;;;6.90;93.60;;;;;;5051869;28;20052;-85
2020/12/02 05:11:36;;;;;;;34.30;16.23;;;6.90;93.70;;;;;;5050607;28;20084;-85
2020/12/02 05:14:05;;;;;;;33.40;17.03;;;6.90;93.30;;;;;;5050890;28;20025;-85
2020/12/02 05:16:31;;;;;;;32.17;15.80;;;6.90;93.30;;;;;;5050968;28;20033;-86
2020/12/02 05:19:02;;;;;;;36.57;19.03;;;6.90;93.40;;;;;;5050870;28;20044;-86
2020/12/02 05:21:40;;;;;;;39.63;19.53;;;6.90;93.50;;;;;;5050560;28;20029;-87
2020/12/02 05:24:10;;;;;;;39.30;19.30;;;6.90;93.50;;;;;;5052412;28;20029;-85
2020/12/02 05:26:40;;;;;;;40.20;18.83;;;6.90;93.40;;;;;;5052190;28;20362;-86
2020/12/02 05:29:22;;;;;;;37.70;18.20;;;6.90;93.60;;;;;;5050484;28;20071;-85
2020/12/02 05:31:50;;;;;;;35.23;17.77;;;6.90;93.40;;;;;;5052111;28;20036;-87
2020/12/02 05:34:18;;;;;;;36.07;18.37;;;6.90;93.60;;;;;;5050933;28;20025;-85
2020/12/02 05:36:51;;;;;;;36.10;17.87;;;6.90;93.50;;;;;;5052072;28;20032;-86
2020/12/02 05:39:54;;;;;;;36.47;17.70;;;6.90;93.60;;;;;;5050417;28;20036;-86
2020/12/02 05:42:27;;;;;;;33.80;16.87;;;6.90;93.50;;;;;;5052661;28;20028;-88
2020/12/02 05:45:00;;;;;;;41.17;18.30;;;6.90;93.70;;;;;;5052152;28;20029;-86
2020/12/02 05:47:25;;;;;;;39.60;18.27;;;6.90;93.60;;;;;;5050800;28;20405;-88
2020/12/02 05:49:58;;;;;;;36.97;18.10;;;6.90;93.60;;;;;;5051197;28;20028;-87
2020/12/02 05:52:40;;;;;;;35.70;17.37;;;6.90;93.40;;;;;;5050314;28;20036;-87
2020/12/02 05:55:09;;;;;;;34.20;16.50;;;6.90;93.30;;;;;;5053328;28;20075;-87
2020/12/02 05:57:35;;;;;;;35.40;16.93;;;6.90;93.50;;;;;;5051596;28;20032;-89
2020/12/02 06:00:02;;;;;;;35.97;16.53;;;6.80;93.60;;;;;;5050829;28;20029;-86
2020/12/02 06:02:29;;;;;;;32.97;15.43;;;6.80;93.70;;;;;;5050188;28;20137;-88
2020/12/02 06:04:54;;;;;;;36.27;16.80;;;6.80;93.60;;;;;;5050133;28;20502;-88
2020/12/02 06:07:22;;;;;;;34.03;16.53;;;6.90;93.40;;;;;;5052999;28;20116;-88
2020/12/02 06:09:51;;;;;;;36.77;16.93;;;6.90;93.40;;;;;;5054011;28;20037;-87
2020/12/02 06:12:24;;;;;;;33.72;16.55;;;6.90;93.60;;;;;;5053771;28;20029;-88
2020/12/02 06:14:50;;;;;;;34.50;17.10;;;6.80;93.80;;;;;;5054918;28;20406;-87
2020/12/02 06:17:31;;;;;;;31.40;16.33;;;6.80;93.80;;;;;;5053563;28;20017;-87
2020/12/02 06:19:57;;;;;;;33.63;15.33;;;6.80;93.90;;;;;;5052671;28;20057;-87
2020/12/02 06:22:46;;;;;;;30.97;15.13;;;6.80;93.80;;;;;;5054714;28;20039;-86
2020/12/02 06:25:48;;;;;;;40.17;16.38;;;6.80;93.90;;;;;;5054510;28;20021;-86
2020/12/02 06:28:34;;;;;;;32.87;16.20;;;6.80;93.80;;;;;;5053637;28;20116;-87
2020/12/02 06:31:08;;;;;;;42.33;17.10;;;6.80;93.80;;;;;;5041846;28;20036;-87
2020/12/02 06:33:39;;;;;;;38.33;17.70;;;6.80;93.70;;;;;;5053382;28;20440;-87
2020/12/02 06:36:14;;;;;;;39.57;18.57;;;6.70;93.80;;;;;;5053218;28;20032;-88
2020/12/02 06:38:40;;;;;;;40.50;18.13;;;6.80;93.80;;;;;;5053522;28;20025;-89
2020/12/02 06:41:33;;;;;;;44.23;19.37;;;6.70;93.70;;;;;;5053314;28;20386;-88
2020/12/02 06:44:13;;;;;;;43.40;17.33;;;6.70;93.80;;;;;;5051220;28;20041;-88
2020/12/02 06:46:41;;;;;;;;;;;6.70;93.70;;;;;;5053440;28;20025;-88
2020/12/02 06:49:08;;;;;;;43.37;17.73;;;6.70;93.90;;;;;;5052545;28;20368;-87
2020/12/02 06:51:34;;;;;;;40.83;17.27;;;6.70;93.80;;;;;;5052763;28;20029;-88
2020/12/02 06:53:59;;;;;;;39.83;17.57;;;6.70;93.80;;;;;;5052982;28;20082;-88
2020/12/02 06:56:26;;;;;;;39.07;16.97;;;6.70;93.80;;;;;;5054351;28;20029;-88
2020/12/02 06:59:05;;;;;;;41.47;17.83;;;6.70;93.80;;;;;;5052824;28;20035;-88
2020/12/02 07:01:33;;;;;;;43.63;18.00;;;6.70;93.70;;;;;;5054192;28;20029;-87
2020/12/02 07:04:19;;;;;;;44.50;19.33;;;6.70;93.80;;;;;;5054041;28;20045;-88
2020/12/02 07:06:56;;;;;;;44.33;18.60;;;6.70;93.80;;;;;;5052613;28;20021;-88
2020/12/02 07:09:23;;;;;;;46.47;18.40;;;6.70;93.90;;;;;;5052147;28;20048;-88
2020/12/02 07:11:57;;;;;;;42.97;19.73;;;6.70;93.80;;;;;;5052406;28;20039;-88
2020/12/02 07:14:47;;;;;;;47.87;19.27;;;6.70;93.80;;;;;;5052355;28;20078;-88
2020/12/02 07:17:14;;;;;;;47.43;19.17;;;6.70;93.90;;;;;;5051640;28;20041;-88
2020/12/02 07:19:45;;;;;;;50.47;20.00;;;6.70;93.80;;;;;;5052955;28;20381;-88
2020/12/02 07:22:30;;;;;;;51.03;20.37;;;6.70;93.80;;;;;;5053355;28;20025;-88
2020/12/02 07:25:07;;;;;;;47.73;19.57;;;6.70;94.00;;;;;;5053503;28;20029;-88
2020/12/02 07:27:40;;;;;;;44.93;19.43;;;6.70;94.00;;;;;;5052429;28;20025;-88
2020/12/02 07:30:07;;;;;;;46.30;19.63;;;6.70;94.00;;;;;;5051634;28;20482;-88
2020/12/02 07:32:33;;;;;;;47.63;20.43;;;6.70;93.80;;;;;;5052025;28;20033;-87
2020/12/02 07:35:11;;;;;;;43.13;18.83;;;6.70;93.90;;;;;;5053229;28;20612;-86
2020/12/02 07:37:37;;;;;;;43.83;18.60;;;6.70;93.90;;;;;;5052146;28;20024;-88
2020/12/02 07:40:05;;;;;;;43.70;19.50;;;6.70;93.90;;;;;;5051408;28;20504;-88
2020/12/02 07:42:39;;;;;;;39.37;18.23;;;6.70;93.90;;;;;;5051802;28;20028;-88
2020/12/02 07:45:07;;;;;;;39.77;18.27;;;6.70;93.80;;;;;;5051822;28;20025;-88
2020/12/02 07:47:34;;;;;;;35.97;17.37;;;6.70;93.80;;;;;;5051926;28;20025;-88
2020/12/02 07:50:02;;;;;;;36.33;16.20;;;6.70;93.60;;;;;;5052414;28;20053;-88
2020/12/02 07:52:35;;;;;;;33.53;15.77;;;6.70;93.50;;;;;;5051724;28;20051;-87
2020/12/02 07:55:01;;;;;;;33.90;15.70;;;6.80;93.60;;;;;;5051791;28;20124;-88
2020/12/02 07:57:28;;;;;;;31.40;15.43;;;6.80;93.50;;;;;;5051359;28;20104;-88
2020/12/02 08:00:24;;;;;;;34.53;16.73;;;6.80;93.30;;;;;;5050835;28;20021;-86
2020/12/02 08:02:50;;;;;;;31.77;14.80;;;6.70;93.40;;;;;;5052502;28;20040;-87
2020/12/02 08:05:33;;;;;;;31.33;14.67;;;6.80;93.50;;;;;;5052929;28;20028;-87
2020/12/02 08:08:02;;;;;;;33.10;15.50;;;6.80;93.50;;;;;;5051426;28;20021;-88
2020/12/02 08:10:37;;;;;;;31.65;15.57;;;6.80;93.50;;;;;;5051414;28;20177;-87
2020/12/02 08:13:25;;;;;;;35.67;15.60;;;6.70;93.40;;;;;;5051534;28;20035;-88
2020/12/02 08:15:57;;;;;;;30.07;13.83;;;6.80;93.40;;;;;;5052284;28;20386;-88
2020/12/02 08:18:28;;;;;;;31.83;14.53;;;6.80;93.20;;;;;;5051325;28;20025;-88
2020/12/02 08:21:08;;;;;;;30.43;14.97;;;6.80;93.60;;;;;;5052098;28;20260;-88
2020/12/02 08:23:35;;;;;;;26.57;13.80;;;6.80;93.40;;;;;;5051056;28;20021;-89
2020/12/02 08:26:15;;;;;;;30.10;14.50;;;6.80;93.30;;;;;;5052527;28;20075;-88
2020/12/02 08:28:41;;;;;;;24.23;12.63;;;6.80;93.30;;;;;;5050527;28;20028;-87
2020/12/02 08:31:23;;;;;;;21.57;12.23;;;6.80;93.30;;;;;;5051678;28;20103;-88
2020/12/02 08:34:25;;;;;;;25.27;12.90;;;6.80;93.50;;;;;;5051102;28;20100;-88
2020/12/02 08:37:14;;;;;;;24.83;12.20;;;6.80;93.60;;;;;;5052466;28;20025;-87
2020/12/02 08:39:43;;;;;;;22.67;11.73;;;6.80;93.20;;;;;;5051736;28;20021;-88
2020/12/02 08:42:26;;;;;;;19.35;10.77;;;6.80;93.30;;;;;;5050803;28;20029;-87
2020/12/02 08:45:05;;;;;;;21.90;11.07;;;6.80;93.00;;;;;;5050728;28;20059;-88
2020/12/02 08:47:31;;;;;;;21.92;11.38;;;6.80;93.00;;;;;;5050969;28;20124;-88
2020/12/02 08:49:57;;;;;;;20.57;11.13;;;6.70;93.10;;;;;;5050262;28;20112;-87
2020/12/02 08:52:22;;;;;;;20.97;11.37;;;6.80;93.10;;;;;;5052206;28;20078;-87
2020/12/02 08:54:48;;;;;;;21.87;12.07;;;6.80;92.90;;;;;;5050678;28;20025;-88
2020/12/02 08:57:14;;;;;;;22.23;11.90;;;6.80;93.00;;;;;;5050832;28;20063;-88
2020/12/02 08:59:40;;;;;;;21.47;11.60;;;6.80;93.00;;;;;;5050090;28;20032;-88
2020/12/02 09:02:14;;;;;;;23.80;12.77;;;6.70;92.90;;;;;;5051907;28;20029;-88
2020/12/02 09:04:41;;;;;;;21.33;12.23;;;6.80;93.10;;;;;;5052164;28;20025;-88
2020/12/02 09:07:07;;;;;;;22.33;12.90;;;6.80;93.00;;;;;;5050708;28;20025;-87
2020/12/02 09:09:33;;;;;;;23.90;13.63;;;6.70;93.00;;;;;;5049963;28;20028;-88
2020/12/02 09:11:58;;;;;;;23.03;12.40;;;6.80;93.00;;;;;;5052045;28;20025;-88
2020/12/02 09:14:24;;;;;;;22.60;12.77;;;6.80;93.10;;;;;;5050596;28;20473;-87
2020/12/02 09:16:50;;;;;;;22.33;12.67;;;6.80;92.90;;;;;;5050647;28;20112;-87
2020/12/02 09:19:17;;;;;;;23.03;13.00;;;6.70;93.00;;;;;;5049941;28;20384;-87
2020/12/02 09:21:44;;;;;;;23.73;13.47;;;6.80;93.40;;;;;;5050350;28;20029;-88
2020/12/02 09:24:10;;;;;;;24.23;13.40;;;6.70;93.10;;;;;;5051588;28;20028;-88
2020/12/02 09:26:36;;;;;;;26.07;14.07;;;6.70;93.00;;;;;;5050522;28;20026;-86
2020/12/02 09:29:03;;;;;;;25.70;14.63;;;6.80;93.10;;;;;;5049917;28;20449;-88
2020/12/02 09:31:31;;;;;;;24.60;14.50;;;6.80;92.90;;;;;;5050385;28;20078;-88
2020/12/02 09:33:57;;;;;;;26.43;14.77;;;6.80;92.90;;;;;;5050495;28;20036;-87
2020/12/02 09:36:24;;;;;;;27.63;15.63;;;6.80;93.10;;;;;;5050566;28;20033;-88
2020/12/02 09:38:51;;;;;;;28.23;15.57;;;6.70;93.10;;;;;;5050178;28;20029;-87
2020/12/02 09:41:35;;;;;;;25.13;14.37;;;6.80;92.90;;;;;;5052848;28;20397;-89
2020/12/02 09:44:20;;;;;;;27.80;15.73;;;6.80;92.90;;;;;;5055252;28;20033;-88
2020/12/02 09:46:58;;;;;;;29.17;16.00;;;6.80;93.10;;;;;;5054263;28;20029;-88
2020/12/02 09:49:24;;;;;;;27.47;15.50;;;6.80;93.00;;;;;;5053425;28;20027;-88
2020/12/02 09:52:09;;;;;;;31.20;17.00;;;6.80;93.00;;;;;;5053786;28;20116;-87
2020/12/02 09:54:43;;;;;;;30.70;16.33;;;6.80;92.60;;;;;;5054045;28;20489;-87
2020/12/02 09:57:19;;;;;;;32.03;18.67;;;6.80;92.70;;;;;;5053913;28;20025;-88
2020/12/02 09:59:45;;;;;;;28.53;16.70;;;6.80;92.80;;;;;;5053033;28;20082;-87
2020/12/02 10:02:16;;;;;;;31.53;17.93;;;6.80;92.70;;;;;;5053631;28;20500;-87
2020/12/02 10:05:12;;;;;;;30.97;17.37;;;6.80;92.70;;;;;;5053817;28;20060;-88
2020/12/02 10:07:53;;;;;;;33.00;18.03;;;6.80;92.80;;;;;;5053679;28;20500;-88
2020/12/02 10:10:50;;;;;;;32.77;19.27;;;6.80;92.80;;;;;;5052938;28;20044;-87
2020/12/02 10:13:26;;;;;;;34.40;19.83;;;6.80;92.70;;;;;;5053457;28;20029;-87
2020/12/02 10:16:12;;;;;;;33.07;18.87;;;6.80;92.70;;;;;;5054797;28;20457;-87
2020/12/02 10:18:49;;;;;;;31.40;17.83;;;6.80;92.70;;;;;;5053791;28;20443;-87
2020/12/02 10:21:39;;;;;;;28.00;16.70;;;6.90;92.70;;;;;;5053447;28;20040;-87
2020/12/02 10:24:54;;;;;;;21.50;13.47;;;6.80;92.40;;;;;;5053704;28;20477;-87
2020/12/02 10:27:56;;;;;;;18.93;10.73;;;6.80;92.30;;;;;;5053671;28;20143;-87
2020/12/02 10:30:28;;;;;;;16.97;10.10;;;6.70;92.20;;;;;;5053821;28;20135;-87
2020/12/02 10:32:59;;;;;;;13.13;8.27;;;6.70;91.70;;;;;;5053329;28;20078;-87
2020/12/02 10:35:27;;;;;;;12.80;7.93;;;6.60;91.70;;;;;;5054332;28;20039;-87
2020/12/02 10:38:00;;;;;;;11.17;7.40;;;6.60;91.60;;;;;;5054218;28;20032;-87
2020/12/02 10:40:36;;;;;;;11.40;6.90;;;6.60;91.50;;;;;;5053133;28;20378;-87
2020/12/02 10:43:27;;;;;;;12.10;7.20;;;6.50;91.50;;;;;;5053485;28;20033;-86
2020/12/02 10:45:59;;;;;;;15.43;8.30;;;6.50;91.60;;;;;;5053621;28;20063;-87
2020/12/02 10:48:47;;;;;;;12.37;7.60;;;6.50;91.50;;;;;;5053274;28;20033;-87
2020/12/02 10:51:13;;;;;;;11.07;7.07;;;6.50;91.60;;;;;;5052623;28;20029;-87
2020/12/02 10:53:44;;;;;;;11.87;7.37;;;6.40;91.50;;;;;;5052847;28;20104;-87
2020/12/02 10:56:10;;;;;;;10.00;6.60;;;6.40;91.50;;;;;;5053083;28;20473;-87
2020/12/02 10:58:36;;;;;;;13.53;7.43;;;6.40;91.40;;;;;;5054163;28;20036;-87
2020/12/02 11:01:07;;;;;;;13.50;7.47;;;6.40;91.40;;;;;;5052131;28;20134;-88
2020/12/02 11:03:40;;;;;;;10.33;7.20;;;6.40;91.60;;;;;;5054051;28;20040;-88
2020/12/02 11:06:15;;;;;;;11.50;7.97;;;6.40;91.40;;;;;;5052629;28;20029;-86
2020/12/02 11:08:49;;;;;;;12.97;7.63;;;6.40;91.40;;;;;;5054283;28;20024;-87
2020/12/02 11:11:21;;;;;;;12.23;7.77;;;6.40;91.30;;;;;;5052020;28;20379;-87
2020/12/02 11:14:12;;;;;;;11.17;7.70;;;6.40;91.30;;;;;;5052736;28;20029;-88
2020/12/02 11:17:00;;;;;;;13.00;8.30;;;6.40;91.20;;;;;;5052293;28;20031;-86
2020/12/02 11:19:34;;;;;;;12.70;7.80;;;6.50;90.80;;;;;;5051842;28;20037;-87
2020/12/02 11:22:21;;;;;;;16.87;8.33;;;6.50;90.80;;;;;;5052416;28;20029;-87
2020/12/02 11:24:52;;;;;;;11.43;7.60;;;6.50;90.80;;;;;;5053032;28;20132;-87
2020/12/02 11:27:18;;;;;;;12.23;8.30;;;6.40;90.70;;;;;;5052584;28;20418;-88
2020/12/02 11:29:44;;;;;;;13.10;8.53;;;6.50;90.60;;;;;;5053062;28;20033;-88
2020/12/02 11:32:40;;;;;;;12.40;8.53;;;6.50;90.60;;;;;;5053096;28;20032;-87
2020/12/02 11:35:48;;;;;;;10.87;7.80;;;6.50;90.50;;;;;;5052417;28;20029;-87
2020/12/02 11:38:50;;;;;;;15.30;9.33;;;6.40;90.50;;;;;;5039043;28;20037;-87
2020/12/02 11:41:15;;;;;;;15.33;9.37;;;6.40;90.90;;;;;;5052422;28;20397;-87
2020/12/02 11:43:43;;;;;;;14.93;9.00;;;6.40;90.70;;;;;;5053057;28;20029;-87
2020/12/02 11:46:14;;;;;;;14.13;9.13;;;6.40;90.90;;;;;;5053069;28;20555;-86
2020/12/02 11:49:09;;;;;;;14.97;8.87;;;6.40;91.10;;;;;;5052211;28;20032;-88
2020/12/02 11:51:46;;;;;;;14.03;9.00;;;6.40;91.00;;;;;;5053262;28;20440;-87
2020/12/02 11:54:13;;;;;;;15.30;9.63;;;6.40;90.80;;;;;;5052943;28;20029;-87
2020/12/02 11:56:51;;;;;;;14.20;9.27;;;6.40;91.10;;;;;;5052735;28;20120;-84
2020/12/02 11:59:29;;;;;;;14.20;9.27;;;6.30;91.30;;;;;;5053370;28;20082;-85
2020/12/02 12:02:36;;;;;;;13.93;9.40;;;6.30;91.20;;;;;;5052260;28;20096;-85
2020/12/02 12:05:10;;;;;;;14.63;9.57;;;6.30;91.50;;;;;;5052453;28;20390;-86
2020/12/02 12:07:45;;;;;;;16.20;10.10;;;6.30;91.60;;;;;;5052149;28;20502;-85
2020/12/02 12:10:49;;;;;;;14.80;9.80;;;6.30;91.60;;;;;;5052828;28;20033;-85
2020/12/02 12:13:30;;;;;;;15.67;9.73;;;6.30;91.50;;;;;;4994616;28;20041;-85
2020/12/02 12:16:14;;;;;;;15.93;10.43;;;6.30;91.40;;;;;;5046627;28;20041;-87
2020/12/02 12:18:40;;;;;;;18.07;11.03;;;6.30;91.30;;;;;;5051571;28;20029;-87
2020/12/02 12:21:31;;;;;;;16.83;10.47;;;6.30;91.50;;;;;;5050482;28;20036;-87
2020/12/02 12:24:06;;;;;;;16.67;10.43;;;6.30;91.50;;;;;;5051314;28;20029;-87
2020/12/02 12:26:36;;;;;;;14.50;10.00;;;6.30;91.30;;;;;;5052034;28;20025;-88
2020/12/02 12:29:07;;;;;;;15.33;11.00;;;6.30;91.20;;;;;;5052030;28;20036;-88
2020/12/02 12:32:08;;;;;;;16.60;10.40;;;6.30;91.20;;;;;;5052502;28;20031;-88
2020/12/02 12:34:52;;;;;;;20.83;10.67;;;6.30;91.40;;;;;;5051565;28;20032;-88
2020/12/02 12:37:34;;;;;;;18.90;11.20;;;6.30;91.00;;;;;;5051182;28;20515;-87
2020/12/02 12:40:05;;;;;;;17.97;11.17;;;6.30;91.00;;;;;;5053480;28;20096;-88
2020/12/02 12:42:31;;;;;;;18.40;11.27;;;6.30;91.40;;;;;;5053847;28;20537;-88
2020/12/02 12:45:03;;;;;;;16.93;11.00;;;6.30;91.40;;;;;;5052039;28;20033;-88
2020/12/02 12:47:33;;;;;;;17.87;11.83;;;6.20;91.60;;;;;;5055645;28;20119;-88
2020/12/02 12:50:00;;;;;;;21.37;11.17;;;6.20;91.60;;;;;;5054764;28;20025;-88
2020/12/02 12:52:30;;;;;;;17.43;10.60;;;6.30;90.90;;;;;;5053606;28;20029;-86
2020/12/02 12:54:55;;;;;;;15.98;10.40;;;6.30;91.30;;;;;;5056704;28;20025;-87
2020/12/02 12:57:26;;;;;;;15.00;10.10;;;6.30;91.20;;;;;;5057026;28;20051;-85
2020/12/02 12:59:57;;;;;;;16.20;10.87;;;6.30;91.40;;;;;;5057901;28;20032;-85
2020/12/02 13:02:36;;;;;;;15.03;10.33;;;6.30;91.30;;;;;;5057970;28;20029;-87
2020/12/02 13:05:04;;;;;;;19.10;10.77;;;6.30;91.30;;;;;;5055664;28;20405;-85
2020/12/02 13:07:36;;;;;;;15.13;10.23;;;6.30;91.50;;;;;;5056761;28;20105;-85
2020/12/02 13:10:41;;;;;;;15.33;9.40;;;6.30;91.60;;;;;;5059478;28;20156;-85